Sand Lake, Florida
Current Conditions -  °F | °C
As of 10:53 PM on Sunday 23 Nov 2014 (Local Time) from KMCO Reporting Station
Broken Clouds Broken Clouds  
Wind Chill: 23°   Ceiling: 3200
Heat Index: 23°   Visibility: 10mi
Dew Point: 22°   Wind: 6mph
Humidity: 96%   Direction: 170°S
Pressure: 29.96"   Gusts: NA
Location:  28.4565°N, 81.4676°W
Report Text: KMCO 240353Z 17005KT 10SM BKN032 BKN049 23/22 A2996 RMK AO2 SLP143 T02280222 $
Loading
Personal Weather Stations






























Interactive Weather Map New forecast layout! Learn more

10-Day Weather Forecast

Advertisements
Track Severe Weather on mobile